Time;durP1;ratioP1;P1;durP2;ratioP2;P2;SDS_P1;SDS_P2;PMS_P1;PMS_P2;Temp;Humidity;BMP_temperature;BMP_pressure;BME280_temperature;BME280_humidity;BME280_pressure;Samples;Min_cycle;Max_cycle;Signal;HPM_P1;HPM_P2
2021/03/21 00:00:41;;;;;;;11.23;10.20;;;8.30;99.90;;;;;;2079557;28;20017;-75
2021/03/21 00:01:43;;;;;;;10.35;9.43;;;8.30;99.90;;;;;;2075132;28;20256;-75
2021/03/21 00:02:43;;;;;;;12.07;10.10;;;8.30;99.90;;;;;;2070820;28;20045;-75
2021/03/21 00:03:44;;;;;;;10.82;9.73;;;8.30;99.90;;;;;;2087349;28;20029;-75
2021/03/21 00:04:45;;;;;;;11.45;10.35;;;8.30;99.90;;;;;;2084314;28;20025;-75
2021/03/21 00:05:46;;;;;;;12.00;10.90;;;8.40;99.90;;;;;;2087669;28;20048;-75
2021/03/21 00:06:46;;;;;;;11.18;10.10;;;8.40;99.90;;;;;;2095476;28;20032;-75
2021/03/21 00:07:52;;;;;;;12.65;9.93;;;8.40;99.90;;;;;;2079028;28;20041;-75
2021/03/21 00:08:53;;;;;;;10.80;9.80;;;8.40;99.90;;;;;;2075241;28;20029;-75
2021/03/21 00:09:54;;;;;;;11.35;10.25;;;8.40;99.90;;;;;;2076044;28;20040;-74
2021/03/21 00:10:57;;;;;;;11.77;10.40;;;8.40;99.90;;;;;;2079269;28;20037;-76
2021/03/21 00:11:58;;;;;;;11.13;10.02;;;8.40;99.90;;;;;;2071450;28;20498;-75
2021/03/21 00:12:59;;;;;;;11.15;10.07;;;8.40;99.90;;;;;;2079391;28;20030;-75
2021/03/21 00:14:00;;;;;;;12.43;11.13;;;8.40;99.90;;;;;;2079341;28;20026;-74
2021/03/21 00:15:04;;;;;;;11.70;10.65;;;8.40;99.90;;;;;;2070330;28;20017;-75
2021/03/21 00:16:07;;;;;;;12.18;10.95;;;8.40;99.90;;;;;;2076506;28;20472;-76
2021/03/21 00:17:07;;;;;;;11.33;10.33;;;8.40;99.90;;;;;;2050466;28;750751;-74
2021/03/21 00:18:08;;;;;;;11.90;10.65;;;8.40;99.90;;;;;;2069465;28;20052;-74
2021/03/21 00:19:10;;;;;;;11.20;10.10;;;8.40;99.90;;;;;;2072464;28;20072;-75
2021/03/21 00:20:12;;;;;;;12.02;10.82;;;8.40;99.90;;;;;;2077809;28;20464;-74
2021/03/21 00:21:15;;;;;;;12.52;10.90;;;8.40;99.90;;;;;;2071557;28;20025;-75
2021/03/21 00:22:16;;;;;;;12.55;11.25;;;8.40;99.90;;;;;;2068579;28;20470;-74
2021/03/21 00:23:18;;;;;;;13.23;11.63;;;8.40;99.90;;;;;;2071324;28;20072;-75
2021/03/21 00:24:18;;;;;;;12.63;11.32;;;8.40;99.90;;;;;;2071145;28;20100;-75
2021/03/21 00:25:21;;;;;;;11.85;10.63;;;8.40;99.90;;;;;;2071061;28;20526;-74
2021/03/21 00:26:22;;;;;;;12.70;11.50;;;8.40;99.90;;;;;;2081752;28;20098;-75
2021/03/21 00:27:23;;;;;;;12.95;11.63;;;8.40;99.90;;;;;;2094987;28;20123;-74
2021/03/21 00:28:27;;;;;;;12.73;11.48;;;8.40;99.90;;;;;;2079291;28;20079;-75
2021/03/21 00:29:28;;;;;;;12.43;11.20;;;8.50;99.90;;;;;;2071093;28;20030;-75
2021/03/21 00:30:33;;;;;;;12.65;11.48;;;8.40;99.90;;;;;;2079499;28;20116;-74
2021/03/21 00:31:34;;;;;;;13.32;11.85;;;8.40;99.90;;;;;;2072050;28;20030;-74
2021/03/21 00:32:35;;;;;;;13.68;12.30;;;8.40;99.90;;;;;;2070780;28;20026;-75
2021/03/21 00:33:37;;;;;;;13.80;12.38;;;8.40;99.90;;;;;;2079467;28;20033;-75
2021/03/21 00:34:38;;;;;;;13.00;11.70;;;8.40;99.90;;;;;;2087974;28;20032;-75
2021/03/21 00:35:39;;;;;;;13.20;11.90;;;8.40;99.90;;;;;;2087895;28;20029;-76
2021/03/21 00:36:39;;;;;;;14.07;11.88;;;8.40;99.90;;;;;;2079642;28;20043;-75
2021/03/21 00:37:41;;;;;;;11.93;10.73;;;8.40;99.90;;;;;;2075847;28;20018;-74
2021/03/21 00:38:45;;;;;;;12.23;11.02;;;8.40;99.90;;;;;;2063569;28;20027;-74
2021/03/21 00:39:46;;;;;;;13.38;11.98;;;8.40;99.90;;;;;;2079528;28;20029;-75
2021/03/21 00:40:47;;;;;;;13.40;11.55;;;8.40;99.90;;;;;;2079512;28;20434;-74
2021/03/21 00:41:48;;;;;;;12.45;11.20;;;8.40;99.90;;;;;;2071634;28;20413;-74
2021/03/21 00:42:49;;;;;;;13.35;12.00;;;8.40;99.90;;;;;;2071559;28;20022;-75
2021/03/21 00:43:51;;;;;;;13.23;11.93;;;8.50;99.90;;;;;;2078732;28;20029;-75
2021/03/21 00:44:51;;;;;;;13.23;12.02;;;8.40;99.90;;;;;;2071579;28;20034;-75
2021/03/21 00:45:52;;;;;;;12.63;11.50;;;8.40;99.90;;;;;;2071274;28;20022;-74
2021/03/21 00:46:53;;;;;;;13.95;12.45;;;8.50;99.90;;;;;;2073771;28;20022;-75
2021/03/21 00:47:55;;;;;;;12.55;11.35;;;8.40;99.90;;;;;;2079284;28;20573;-74
2021/03/21 00:48:55;;;;;;;13.73;12.43;;;8.40;99.90;;;;;;2079309;28;20486;-76
2021/03/21 00:49:56;;;;;;;13.55;12.23;;;8.40;99.90;;;;;;2079696;28;20037;-74
2021/03/21 00:50:57;;;;;;;13.73;12.43;;;8.40;99.90;;;;;;2079551;28;20520;-74
2021/03/21 00:51:58;;;;;;;14.52;12.68;;;8.40;99.90;;;;;;2071271;28;20022;-76
2021/03/21 00:52:59;;;;;;;14.10;12.80;;;8.40;99.90;;;;;;2083638;28;20056;-75
2021/03/21 00:54:00;;;;;;;14.20;12.80;;;8.40;99.90;;;;;;2095778;28;20032;-75
2021/03/21 00:55:00;;;;;;;13.85;12.27;;;8.40;99.90;;;;;;2072811;28;20029;-74
2021/03/21 00:56:01;;;;;;;13.90;12.52;;;8.40;99.90;;;;;;2071475;28;20502;-75
2021/03/21 00:57:02;;;;;;;13.60;12.20;;;8.40;99.90;;;;;;2071240;28;20100;-75
2021/03/21 00:58:04;;;;;;;13.60;12.20;;;8.40;99.90;;;;;;2067264;28;20022;-75
2021/03/21 00:59:05;;;;;;;14.10;12.63;;;8.30;99.90;;;;;;2069560;28;20014;-74
2021/03/21 01:00:10;;;;;;;14.27;12.70;;;8.40;99.90;;;;;;2087738;28;20075;-75
2021/03/21 01:01:11;;;;;;;13.85;12.43;;;8.30;99.90;;;;;;2084024;28;20474;-74
2021/03/21 01:02:12;;;;;;;12.80;11.60;;;8.30;99.90;;;;;;2067465;28;20048;-76
2021/03/21 01:03:12;;;;;;;14.60;12.95;;;8.40;99.90;;;;;;2079158;28;20102;-75
2021/03/21 01:04:13;;;;;;;13.65;12.43;;;8.30;99.90;;;;;;2079111;28;20025;-77
2021/03/21 01:05:20;;;;;;;14.75;13.30;;;8.30;99.90;;;;;;2078944;28;20033;-78
2021/03/21 01:06:21;;;;;;;14.30;12.88;;;8.30;99.90;;;;;;2071180;28;20021;-76
2021/03/21 01:07:21;;;;;;;15.25;13.73;;;8.30;99.90;;;;;;2076982;28;20085;-76
2021/03/21 01:08:30;;;;;;;14.27;12.95;;;8.30;99.90;;;;;;2069046;28;20097;-75
2021/03/21 01:09:31;;;;;;;14.80;13.30;;;8.30;99.90;;;;;;2086901;28;20397;-75
2021/03/21 01:10:34;;;;;;;15.52;13.65;;;8.30;99.90;;;;;;2085463;28;20098;-75
2021/03/21 01:11:37;;;;;;;14.25;12.85;;;8.30;99.90;;;;;;2084926;28;20037;-77
2021/03/21 01:12:38;;;;;;;14.68;13.27;;;8.30;99.90;;;;;;2087417;28;20094;-78
2021/03/21 01:13:39;;;;;;;13.90;12.48;;;8.30;99.90;;;;;;2079143;28;20123;-78
2021/03/21 01:14:39;;;;;;;16.13;14.43;;;8.20;99.90;;;;;;2079422;28;20052;-77
2021/03/21 01:15:40;;;;;;;14.65;13.25;;;8.20;99.90;;;;;;2087314;28;20473;-78
2021/03/21 01:16:42;;;;;;;15.07;13.57;;;8.30;99.90;;;;;;2085290;28;20428;-75
2021/03/21 01:17:43;;;;;;;15.40;13.93;;;8.30;99.90;;;;;;2071268;28;20049;-75
2021/03/21 01:18:44;;;;;;;15.55;14.05;;;8.30;99.90;;;;;;2078717;28;20508;-75
2021/03/21 01:19:44;;;;;;;15.68;14.18;;;8.30;99.90;;;;;;2087557;28;20028;-76
2021/03/21 01:20:46;;;;;;;16.45;14.80;;;8.20;99.90;;;;;;2087184;28;20071;-76
2021/03/21 01:21:48;;;;;;;16.55;14.90;;;8.20;99.90;;;;;;2087453;28;20017;-75
2021/03/21 01:22:49;;;;;;;15.88;14.23;;;8.20;99.90;;;;;;2078955;28;20025;-76
2021/03/21 01:23:50;;;;;;;16.20;14.63;;;8.20;99.90;;;;;;2067862;28;20022;-75
2021/03/21 01:24:51;;;;;;;15.63;14.02;;;8.20;99.90;;;;;;2070922;28;20076;-75
2021/03/21 01:25:52;;;;;;;16.73;14.82;;;8.20;99.90;;;;;;2070768;28;20410;-75
2021/03/21 01:26:53;;;;;;;16.80;14.82;;;8.30;99.90;;;;;;2078559;28;20155;-76
2021/03/21 01:27:55;;;;;;;15.77;14.07;;;8.20;99.90;;;;;;2069965;28;20026;-75
2021/03/21 01:28:58;;;;;;;15.60;14.02;;;8.20;99.90;;;;;;2070852;28;20037;-76
2021/03/21 01:30:00;;;;;;;15.35;13.85;;;8.20;99.90;;;;;;2079291;28;20033;-74
2021/03/21 01:31:03;;;;;;;16.63;14.93;;;8.20;99.90;;;;;;2070519;28;20026;-75
2021/03/21 01:32:08;;;;;;;14.98;13.52;;;8.20;99.90;;;;;;2079245;28;20029;-76
2021/03/21 01:33:08;;;;;;;15.23;13.63;;;8.20;99.90;;;;;;2078896;28;20104;-76
2021/03/21 01:34:09;;;;;;;15.90;14.15;;;8.20;99.90;;;;;;2071028;28;20080;-77
2021/03/21 01:35:11;;;;;;;16.30;14.75;;;8.20;99.90;;;;;;2079136;28;20405;-76
2021/03/21 01:36:16;;;;;;;17.63;15.80;;;8.20;99.90;;;;;;2107887;22;20037;-78
2021/03/21 01:37:17;;;;;;;16.98;15.20;;;8.20;99.90;;;;;;2087446;28;20052;-79
2021/03/21 01:38:18;;;;;;;17.30;15.68;;;8.20;99.90;;;;;;2083687;28;20037;-80
2021/03/21 01:39:25;;;;;;;15.23;13.77;;;8.20;99.90;;;;;;2088083;28;20107;-79
2021/03/21 01:40:26;;;;;;;16.40;14.80;;;8.20;99.90;;;;;;2085568;28;20021;-78
2021/03/21 01:41:32;;;;;;;16.52;14.93;;;8.20;99.90;;;;;;2081589;28;20098;-81
2021/03/21 01:42:42;;;;;;;17.85;15.82;;;8.20;99.90;;;;;;2086438;28;20647;-77
2021/03/21 01:43:44;;;;;;;17.00;15.25;;;8.20;99.90;;;;;;2083382;28;20045;-81
2021/03/21 01:44:45;;;;;;;15.63;14.02;;;8.10;99.90;;;;;;2088310;28;20025;-78
2021/03/21 01:45:48;;;;;;;16.38;14.77;;;8.10;99.90;;;;;;2087912;28;20049;-78
2021/03/21 01:47:06;;;;;;;16.13;14.52;;;8.10;99.90;;;;;;2087969;28;20005;-78
2021/03/21 01:48:19;;;;;;;16.38;14.73;;;8.10;99.90;;;;;;2093508;28;20033;-77
2021/03/21 01:49:29;;;;;;;15.23;13.73;;;8.10;99.90;;;;;;2091660;28;20021;-77
2021/03/21 01:51:02;;;;;;;16.25;14.65;;;8.10;99.90;;;;;;2087055;28;20092;-78
2021/03/21 01:52:06;;;;;;;16.50;14.80;;;8.10;99.90;;;;;;2085448;28;20029;-78
2021/03/21 01:53:07;;;;;;;17.10;15.40;;;8.10;99.90;;;;;;2086809;28;20280;-79
2021/03/21 01:54:13;;;;;;;16.23;14.60;;;8.10;99.90;;;;;;2091237;28;20300;-79
2021/03/21 01:55:16;;;;;;;16.02;14.50;;;8.10;99.90;;;;;;2093730;28;20100;-77
2021/03/21 01:56:17;;;;;;;17.48;15.77;;;8.10;99.90;;;;;;2086342;28;20168;-77
2021/03/21 01:57:18;;;;;;;18.08;16.17;;;8.10;99.90;;;;;;2086605;28;20029;-79
2021/03/21 01:58:21;;;;;;;14.38;12.95;;;8.10;99.90;;;;;;2085780;28;20029;-79
2021/03/21 01:59:31;;;;;;;17.13;15.43;;;8.20;99.90;;;;;;2089178;28;20025;-77
2021/03/21 02:00:32;;;;;;;17.90;16.10;;;8.20;99.90;;;;;;2093267;28;20052;-77
2021/03/21 02:01:32;;;;;;;17.50;15.65;;;8.10;99.90;;;;;;2086604;28;20037;-77
2021/03/21 02:02:33;;;;;;;17.50;15.68;;;8.20;99.90;;;;;;2086050;28;20430;-77
2021/03/21 02:03:34;;;;;;;18.42;16.52;;;8.20;99.90;;;;;;2081353;28;20026;-78
2021/03/21 02:04:35;;;;;;;18.27;16.33;;;8.20;99.90;;;;;;2092103;28;20443;-77
2021/03/21 02:05:39;;;;;;;18.13;16.27;;;8.20;99.90;;;;;;2094643;28;20049;-77
2021/03/21 02:06:52;;;;;;;20.48;16.58;;;8.20;99.90;;;;;;2089750;28;20096;-77
2021/03/21 02:08:16;;;;;;;18.33;16.38;;;8.20;99.90;;;;;;2079153;28;20076;-77
2021/03/21 02:09:53;;;;;;;20.15;16.02;;;8.10;99.90;;;;;;2081557;28;20029;-78
2021/03/21 02:11:03;;;;;;;18.13;16.17;;;8.10;99.90;;;;;;2083649;28;20029;-77
2021/03/21 02:12:10;;;;;;;17.67;15.73;;;8.00;99.90;;;;;;2081629;28;20026;-77
2021/03/21 02:13:29;;;;;;;19.27;16.67;;;8.00;99.90;;;;;;2083142;28;20026;-77
2021/03/21 02:14:49;;;;;;;18.45;16.13;;;8.00;99.90;;;;;;2082623;28;20018;-77
2021/03/21 02:15:58;;;;;;;18.80;16.80;;;8.00;99.90;;;;;;2089736;28;20036;-78
2021/03/21 02:17:08;;;;;;;20.30;17.88;;;8.00;99.90;;;;;;2080137;28;20052;-77
2021/03/21 02:18:25;;;;;;;19.52;17.27;;;8.00;99.90;;;;;;2078409;28;20025;-78
2021/03/21 02:19:56;;;;;;;17.60;15.55;;;8.00;99.90;;;;;;2076446;28;20073;-77
2021/03/21 02:21:55;;;;;;;17.90;15.90;;;8.00;99.90;;;;;;2093314;28;20017;-77
2021/03/21 02:23:13;;;;;;;18.23;16.13;;;8.00;99.90;;;;;;2075968;28;20053;-78
2021/03/21 02:24:28;;;;;;;17.88;15.98;;;8.00;99.90;;;;;;2068328;28;20058;-77
2021/03/21 02:25:36;;;;;;;18.10;16.17;;;8.00;99.90;;;;;;2066949;28;20015;-77
2021/03/21 02:26:48;;;;;;;17.70;15.75;;;8.00;99.90;;;;;;2068220;28;20113;-78
2021/03/21 02:28:11;;;;;;;20.30;16.90;;;8.10;99.90;;;;;;2069861;28;20290;-77
2021/03/21 02:29:12;;;;;;;18.15;16.20;;;8.10;99.90;;;;;;2083669;28;20124;-78
2021/03/21 02:30:25;;;;;;;19.58;17.48;;;8.00;99.90;;;;;;2088911;28;20104;-78
2021/03/21 02:31:32;;;;;;;19.90;17.45;;;8.10;99.90;;;;;;2092577;28;20458;-78
2021/03/21 02:33:03;;;;;;;22.08;17.90;;;8.10;99.90;;;;;;2085543;28;20135;-78
2021/03/21 02:34:11;;;;;;;21.15;18.10;;;8.10;99.90;;;;;;2086346;28;20028;-78
2021/03/21 02:35:51;;;;;;;22.35;17.58;;;8.10;99.90;;;;;;2085659;28;20055;-79
2021/03/21 02:37:05;;;;;;;26.85;18.50;;;8.10;99.90;;;;;;2076768;28;20594;-80
2021/03/21 02:38:31;;;;;;;23.27;17.90;;;8.10;99.90;;;;;;2082715;28;20528;-80
2021/03/21 02:39:47;;;;;;;27.00;20.77;;;8.10;99.90;;;;;;2085360;28;20025;-79
2021/03/21 02:40:55;;;;;;;24.83;20.88;;;8.10;99.90;;;;;;2081651;28;20017;-78
2021/03/21 02:42:03;;;;;;;28.83;21.50;;;8.10;99.90;;;;;;2073496;28;20030;-78
2021/03/21 02:43:22;;;;;;;24.42;20.80;;;8.10;99.90;;;;;;2085558;28;20353;-78
2021/03/21 02:44:29;;;;;;;25.30;21.02;;;8.10;99.90;;;;;;2082107;28;20027;-79
2021/03/21 02:45:34;;;;;;;25.40;20.75;;;8.10;99.90;;;;;;2079353;28;20021;-78
2021/03/21 02:46:39;;;;;;;28.83;21.63;;;8.10;99.90;;;;;;2082748;28;20025;-78
2021/03/21 02:47:41;;;;;;;29.23;22.48;;;8.10;99.90;;;;;;2081439;28;20022;-78
2021/03/21 02:48:48;;;;;;;29.35;22.80;;;8.10;99.90;;;;;;2085635;28;20090;-78
2021/03/21 02:49:53;;;;;;;30.30;24.60;;;8.10;99.90;;;;;;2082652;28;20046;-78
2021/03/21 02:50:58;;;;;;;32.22;24.48;;;8.10;99.90;;;;;;2082376;28;20025;-78
2021/03/21 02:52:04;;;;;;;30.52;24.92;;;8.10;99.90;;;;;;2076201;28;20025;-78
2021/03/21 02:53:14;;;;;;;30.95;25.25;;;8.10;99.90;;;;;;2083572;28;20417;-78
2021/03/21 02:54:30;;;;;;;30.20;24.52;;;8.10;99.90;;;;;;2084761;28;20026;-78
2021/03/21 02:55:38;;;;;;;31.00;24.83;;;8.10;99.90;;;;;;2089128;28;20041;-78
2021/03/21 02:56:42;;;;;;;31.50;25.67;;;8.10;99.90;;;;;;2083243;28;20021;-78
2021/03/21 02:57:48;;;;;;;32.30;25.73;;;8.00;99.90;;;;;;2084773;28;20573;-78
2021/03/21 02:59:04;;;;;;;34.03;26.60;;;8.00;99.90;;;;;;2090253;28;20496;-78
2021/03/21 03:00:07;;;;;;;28.98;24.30;;;8.00;99.90;;;;;;2083829;28;20021;-78
2021/03/21 03:01:14;;;;;;;33.53;27.70;;;8.00;99.90;;;;;;2084414;28;20448;-78
2021/03/21 03:02:28;;;;;;;33.28;26.55;;;8.00;99.90;;;;;;2085016;28;20014;-78
2021/03/21 03:03:31;;;;;;;35.42;26.52;;;8.00;99.90;;;;;;2087396;28;20029;-78
2021/03/21 03:04:39;;;;;;;32.20;25.98;;;8.00;99.90;;;;;;2079458;28;20015;-78
2021/03/21 03:05:47;;;;;;;31.85;25.75;;;8.00;99.90;;;;;;2081561;28;20109;-78
2021/03/21 03:06:57;;;;;;;30.60;25.08;;;8.00;99.90;;;;;;2082562;28;20439;-78
2021/03/21 03:08:08;;;;;;;30.52;24.95;;;8.00;99.90;;;;;;2093877;28;20017;-78
2021/03/21 03:09:21;;;;;;;28.90;24.30;;;8.00;99.90;;;;;;2089795;28;20136;-80
2021/03/21 03:10:32;;;;;;;32.05;25.52;;;8.00;99.90;;;;;;2082052;28;20162;-78
2021/03/21 03:12:00;;;;;;;31.65;24.50;;;8.00;99.90;;;;;;2083183;28;20049;-78
2021/03/21 03:13:11;;;;;;;28.02;23.38;;;8.00;99.90;;;;;;2080935;28;20031;-78
2021/03/21 03:14:33;;;;;;;27.33;22.10;;;8.00;99.90;;;;;;2083560;28;20017;-78
2021/03/21 03:15:34;;;;;;;27.33;22.23;;;8.00;99.90;;;;;;2081446;28;20048;-78
2021/03/21 03:17:14;;;;;;;29.48;23.08;;;8.00;99.90;;;;;;2078025;28;20109;-78
2021/03/21 03:18:31;;;;;;;28.00;23.45;;;8.00;99.90;;;;;;2086553;28;20036;-78
2021/03/21 03:19:37;;;;;;;30.77;24.27;;;7.90;99.90;;;;;;2090209;28;20075;-79
2021/03/21 03:20:48;;;;;;;27.27;22.05;;;7.90;99.90;;;;;;2089938;28;20036;-80
2021/03/21 03:22:12;;;;;;;27.75;23.58;;;7.90;99.90;;;;;;2087095;28;20485;-78
2021/03/21 03:23:38;;;;;;;27.75;23.13;;;7.90;99.90;;;;;;2084763;28;20037;-77
2021/03/21 03:25:11;;;;;;;27.92;22.75;;;7.90;99.90;;;;;;2097854;28;20472;-78
2021/03/21 03:26:28;;;;;;;27.48;22.58;;;7.90;99.90;;;;;;2084726;28;20021;-79
2021/03/21 03:27:39;;;;;;;30.35;22.25;;;7.90;99.90;;;;;;2084140;28;20461;-77
2021/03/21 03:29:00;;;;;;;27.33;22.90;;;7.90;99.90;;;;;;2082373;28;20026;-78
2021/03/21 03:30:20;;;;;;;28.20;22.92;;;7.90;99.90;;;;;;2086693;28;20021;-78
2021/03/21 03:31:47;;;;;;;29.10;23.35;;;7.90;99.90;;;;;;2081884;28;20097;-78
2021/03/21 03:32:48;;;;;;;26.08;21.73;;;7.80;99.90;;;;;;2084666;28;20063;-78
2021/03/21 03:33:49;;;;;;;27.15;21.98;;;7.80;99.90;;;;;;2079344;28;20022;-79
2021/03/21 03:34:54;;;;;;;25.42;21.48;;;7.80;99.90;;;;;;2080961;28;20029;-79
2021/03/21 03:35:55;;;;;;;25.88;21.35;;;7.80;99.90;;;;;;2083622;28;20013;-78
2021/03/21 03:36:57;;;;;;;25.92;21.27;;;7.80;99.90;;;;;;2093373;28;20614;-77
2021/03/21 03:37:59;;;;;;;25.05;20.95;;;7.80;99.90;;;;;;2085173;28;20025;-78
2021/03/21 03:39:00;;;;;;;25.17;21.60;;;7.90;99.90;;;;;;2086209;28;20029;-79
2021/03/21 03:40:03;;;;;;;25.52;20.48;;;7.90;99.90;;;;;;2083534;28;20030;-78
2021/03/21 03:41:09;;;;;;;27.63;22.73;;;7.90;99.90;;;;;;2094821;28;20017;-79
2021/03/21 03:42:44;;;;;;;23.92;20.38;;;7.90;99.90;;;;;;2094281;28;20025;-79
2021/03/21 03:44:06;;;;;;;24.80;20.92;;;7.90;99.90;;;;;;2090122;28;21099;-78
2021/03/21 03:45:21;;;;;;;25.10;21.05;;;7.90;99.90;;;;;;2091370;28;20039;-78
2021/03/21 03:46:43;;;;;;;26.23;21.33;;;7.90;99.90;;;;;;2090051;28;20536;-78
2021/03/21 03:47:50;;;;;;;24.88;20.38;;;7.90;99.90;;;;;;2087825;28;20136;-78
2021/03/21 03:48:51;;;;;;;25.85;21.05;;;7.90;99.90;;;;;;2086817;28;20021;-79
2021/03/21 03:50:12;;;;;;;22.30;19.33;;;7.90;99.90;;;;;;2085618;28;20017;-79
2021/03/21 03:51:16;;;;;;;24.08;19.70;;;7.80;99.90;;;;;;2089458;28;20033;-79
2021/03/21 03:52:30;;;;;;;24.88;20.08;;;7.80;99.90;;;;;;2087805;28;20029;-77
2021/03/21 03:53:56;;;;;;;21.70;18.70;;;7.80;99.90;;;;;;2086453;28;20052;-77
2021/03/21 03:55:05;;;;;;;26.13;20.67;;;7.80;99.90;;;;;;2092596;28;20111;-80
2021/03/21 03:56:10;;;;;;;22.30;18.83;;;7.80;99.90;;;;;;2085120;28;20022;-79
2021/03/21 03:57:20;;;;;;;23.45;20.50;;;7.80;99.90;;;;;;2083053;28;20043;-78
2021/03/21 03:58:36;;;;;;;24.65;19.65;;;7.80;99.90;;;;;;2095253;28;20021;-79
2021/03/21 03:59:54;;;;;;;23.65;20.75;;;7.80;99.90;;;;;;2097134;28;20021;-77
2021/03/21 04:01:13;;;;;;;22.30;18.58;;;7.80;99.90;;;;;;2093967;28;20029;-78
2021/03/21 04:02:20;;;;;;;21.98;18.98;;;7.80;99.90;;;;;;2096222;28;20017;-79
2021/03/21 04:03:42;;;;;;;21.50;18.50;;;7.80;99.90;;;;;;2096690;28;20020;-79
2021/03/21 04:04:57;;;;;;;21.63;17.98;;;7.80;99.90;;;;;;2102180;28;20052;-80
2021/03/21 04:05:58;;;;;;;19.05;16.95;;;7.70;99.90;;;;;;2088165;28;20022;-80
2021/03/21 04:07:09;;;;;;;21.35;16.92;;;7.70;99.90;;;;;;2084959;28;20029;-80
2021/03/21 04:08:27;;;;;;;22.63;17.52;;;7.70;99.90;;;;;;2082102;28;20033;-79
2021/03/21 04:09:37;;;;;;;21.90;17.60;;;7.70;99.90;;;;;;2081238;28;20029;-79
2021/03/21 04:10:45;;;;;;;20.85;17.30;;;7.70;99.90;;;;;;2076750;28;20050;-81
2021/03/21 04:11:49;;;;;;;18.40;16.42;;;7.70;99.90;;;;;;2090456;28;20167;-79
2021/03/21 04:12:50;;;;;;;19.83;16.58;;;7.70;99.90;;;;;;2089654;28;20037;-79
2021/03/21 04:13:57;;;;;;;18.35;15.98;;;7.70;99.90;;;;;;2081148;28;20029;-79
2021/03/21 04:15:20;;;;;;;21.45;17.73;;;7.70;99.90;;;;;;2081721;28;20131;-80
2021/03/21 04:16:28;;;;;;;18.00;16.10;;;7.60;99.90;;;;;;2080473;28;20480;-79
2021/03/21 04:17:45;;;;;;;18.77;16.77;;;7.60;99.90;;;;;;2080306;28;20029;-79
2021/03/21 04:19:19;;;;;;;20.80;15.55;;;7.70;99.90;;;;;;2084555;28;20489;-77
2021/03/21 04:20:31;;;;;;;17.27;15.38;;;7.60;99.90;;;;;;2063370;28;20026;-78
2021/03/21 04:21:36;;;;;;;21.98;17.42;;;7.60;99.90;;;;;;2084345;28;20081;-79
2021/03/21 04:22:58;;;;;;;18.63;16.63;;;7.60;99.90;;;;;;2090323;28;20028;-79
2021/03/21 04:24:01;;;;;;;18.85;16.30;;;7.70;99.90;;;;;;2081742;28;20032;-78
2021/03/21 04:25:08;;;;;;;19.27;16.23;;;7.70;99.90;;;;;;2076971;28;20021;-77
2021/03/21 04:26:14;;;;;;;19.50;15.98;;;7.70;99.90;;;;;;2077992;28;20498;-78
2021/03/21 04:27:20;;;;;;;21.27;16.65;;;7.70;99.90;;;;;;2081760;28;20112;-79
2021/03/21 04:28:33;;;;;;;19.75;17.65;;;7.80;99.90;;;;;;2093079;28;20031;-78
2021/03/21 04:29:42;;;;;;;21.27;16.98;;;7.80;99.90;;;;;;2088606;28;20040;-78
2021/03/21 04:30:49;;;;;;;18.13;16.23;;;7.70;99.90;;;;;;2082793;28;20532;-80
2021/03/21 04:31:52;;;;;;;20.20;17.20;;;7.80;99.90;;;;;;2078723;28;20036;-78
2021/03/21 04:32:54;;;;;;;18.55;16.33;;;7.80;99.90;;;;;;2081447;28;20041;-79
2021/03/21 04:33:59;;;;;;;18.75;16.45;;;7.80;99.90;;;;;;2086444;28;20029;-79
2021/03/21 04:35:04;;;;;;;18.15;15.95;;;7.80;99.90;;;;;;2088336;28;20029;-77
2021/03/21 04:36:22;;;;;;;18.30;16.40;;;7.90;99.90;;;;;;2082420;28;20033;-80
2021/03/21 04:37:24;;;;;;;19.15;16.73;;;7.80;99.90;;;;;;2083588;28;20033;-78
2021/03/21 04:38:36;;;;;;;18.10;16.27;;;7.80;99.90;;;;;;2075643;28;20497;-78
2021/03/21 04:39:40;;;;;;;19.40;17.40;;;7.80;99.90;;;;;;2083079;28;20112;-78
2021/03/21 04:40:42;;;;;;;20.17;17.80;;;7.80;99.90;;;;;;2088584;28;20057;-78
2021/03/21 04:41:49;;;;;;;21.58;17.10;;;7.80;99.90;;;;;;2092839;28;20432;-79
2021/03/21 04:42:59;;;;;;;19.75;17.17;;;7.90;99.90;;;;;;2088739;28;20144;-79
2021/03/21 04:44:17;;;;;;;19.30;16.80;;;7.90;99.90;;;;;;2085245;28;20328;-77
2021/03/21 04:45:23;;;;;;;21.50;17.90;;;7.80;99.90;;;;;;2080051;28;20103;-78
2021/03/21 04:46:31;;;;;;;25.42;18.33;;;7.80;99.90;;;;;;2080169;28;20611;-78
2021/03/21 04:47:58;;;;;;;18.48;16.58;;;7.80;99.90;;;;;;2091303;28;20044;-77
2021/03/21 04:48:59;;;;;;;19.25;17.25;;;7.80;99.90;;;;;;2087915;28;20025;-79
2021/03/21 04:50:00;;;;;;;19.15;17.05;;;7.80;99.90;;;;;;2081597;28;20552;-79
2021/03/21 04:51:07;;;;;;;20.63;17.92;;;7.80;99.90;;;;;;2089777;28;20099;-79
2021/03/21 04:52:41;;;;;;;20.55;17.65;;;7.90;99.90;;;;;;2088920;28;20064;-80
2021/03/21 04:53:54;;;;;;;19.80;16.63;;;7.90;99.90;;;;;;2081398;28;20032;-80
2021/03/21 04:54:56;;;;;;;20.40;16.95;;;7.80;99.90;;;;;;2088972;28;20116;-80
2021/03/21 04:56:05;;;;;;;17.80;15.90;;;7.80;99.90;;;;;;2081324;28;20029;-79
2021/03/21 04:57:18;;;;;;;19.52;16.42;;;7.90;99.90;;;;;;2080139;28;20039;-79
2021/03/21 04:58:37;;;;;;;19.00;16.23;;;7.80;99.90;;;;;;2087503;28;20480;-80
2021/03/21 04:59:38;;;;;;;20.23;16.90;;;7.80;99.90;;;;;;2086354;28;20269;-79
2021/03/21 05:00:44;;;;;;;19.05;17.05;;;7.80;99.90;;;;;;2081112;28;20018;-80
2021/03/21 05:01:45;;;;;;;18.27;16.25;;;7.80;99.90;;;;;;2089547;28;20111;-78
2021/03/21 05:02:50;;;;;;;18.00;16.10;;;7.80;99.90;;;;;;2093230;28;20021;-80
2021/03/21 05:04:05;;;;;;;17.58;15.73;;;7.80;99.90;;;;;;2085981;28;20075;-79
2021/03/21 05:05:34;;;;;;;19.30;16.90;;;7.80;99.90;;;;;;2087761;28;20060;-79
2021/03/21 05:06:48;;;;;;;17.48;15.52;;;7.80;99.90;;;;;;2090744;28;20020;-79
2021/03/21 05:07:51;;;;;;;18.10;16.20;;;7.80;99.90;;;;;;2087334;28;20029;-79
2021/03/21 05:08:57;;;;;;;17.23;15.40;;;7.80;99.90;;;;;;2080777;28;20018;-79
2021/03/21 05:10:07;;;;;;;17.90;16.08;;;7.80;99.90;;;;;;2076761;28;20623;-78
2021/03/21 05:11:08;;;;;;;17.13;15.32;;;7.90;99.90;;;;;;2079547;28;20056;-80
2021/03/21 05:12:19;;;;;;;17.73;15.20;;;7.90;99.90;;;;;;2082206;28;20053;-80
2021/03/21 05:13:22;;;;;;;18.60;15.82;;;7.90;99.90;;;;;;2083387;28;20086;-79
2021/03/21 05:14:32;;;;;;;15.30;13.73;;;7.90;99.90;;;;;;2089988;28;20124;-79
2021/03/21 05:15:54;;;;;;;16.60;13.68;;;7.90;99.90;;;;;;2091397;28;20033;-78
2021/03/21 05:16:55;;;;;;;15.43;13.82;;;7.90;99.90;;;;;;2089866;28;20021;-77
2021/03/21 05:18:32;;;;;;;14.88;13.32;;;7.90;99.90;;;;;;2085241;28;20025;-77
2021/03/21 05:19:41;;;;;;;14.95;13.43;;;7.90;99.90;;;;;;2085813;28;20041;-79
2021/03/21 05:21:06;;;;;;;15.77;13.30;;;7.90;99.90;;;;;;2087385;28;20029;-79
2021/03/21 05:22:17;;;;;;;13.88;12.55;;;7.90;99.90;;;;;;2086376;28;20027;-79
2021/03/21 05:23:48;;;;;;;14.85;13.35;;;7.80;99.90;;;;;;2087423;28;20020;-79
2021/03/21 05:25:15;;;;;;;13.13;11.82;;;7.80;99.90;;;;;;2083845;28;20052;-79
2021/03/21 05:26:41;;;;;;;12.50;11.30;;;7.80;99.90;;;;;;2088151;28;20025;-79
2021/03/21 05:27:44;;;;;;;13.38;11.43;;;7.70;99.90;;;;;;2088520;28;20033;-78
2021/03/21 05:28:50;;;;;;;13.90;12.50;;;7.70;99.90;;;;;;2081169;28;20507;-78
2021/03/21 05:30:12;;;;;;;13.25;11.80;;;7.80;99.90;;;;;;2078901;28;20026;-78
2021/03/21 05:31:13;;;;;;;13.02;11.77;;;7.80;99.90;;;;;;2079231;28;20025;-78
2021/03/21 05:32:18;;;;;;;12.98;11.65;;;7.80;99.90;;;;;;2086316;28;20021;-78
2021/03/21 05:33:18;;;;;;;13.10;11.77;;;7.80;99.90;;;;;;2089811;28;20021;-78
2021/03/21 05:34:19;;;;;;;12.20;11.00;;;7.80;99.90;;;;;;2083167;28;20018;-78
2021/03/21 05:35:31;;;;;;;13.95;12.52;;;7.80;99.90;;;;;;2090742;28;20088;-79
2021/03/21 05:36:56;;;;;;;13.02;11.73;;;7.90;99.90;;;;;;2091044;28;20029;-80
2021/03/21 05:38:11;;;;;;;12.85;11.55;;;7.80;99.90;;;;;;2094843;28;20059;-79
2021/03/21 05:39:17;;;;;;;12.18;10.98;;;7.80;99.90;;;;;;2088316;28;20041;-77
2021/03/21 05:40:44;;;;;;;11.98;10.88;;;7.80;99.90;;;;;;2078859;28;20580;-79
2021/03/21 05:41:48;;;;;;;13.00;11.60;;;7.80;99.90;;;;;;2087969;28;20025;-79
2021/03/21 05:43:07;;;;;;;12.80;11.60;;;7.70;99.90;;;;;;2092646;28;20025;-79
2021/03/21 05:44:11;;;;;;;12.00;10.85;;;7.70;99.90;;;;;;2085097;28;20017;-77
2021/03/21 05:45:36;;;;;;;11.95;10.85;;;7.70;99.90;;;;;;2086650;28;20025;-79
2021/03/21 05:46:56;;;;;;;12.80;11.50;;;7.70;99.90;;;;;;2081716;28;20539;-78
2021/03/21 05:48:32;;;;;;;12.25;10.98;;;7.70;99.90;;;;;;2083363;28;20079;-80
2021/03/21 05:50:02;;;;;;;12.80;11.65;;;7.70;99.90;;;;;;2084204;28;20071;-78
2021/03/21 05:51:39;;;;;;;12.95;11.75;;;7.60;99.90;;;;;;2070580;28;20065;-79
2021/03/21 05:52:59;;;;;;;14.32;12.93;;;7.60;99.90;;;;;;2085421;28;20028;-78
2021/03/21 05:54:30;;;;;;;12.60;11.43;;;7.60;99.90;;;;;;2077531;28;20048;-78